• Join FlightAware (Why Join?)
  • Login
  • US Flag 
01:10AM EDT


 

Airport Tracker/Info


-or-


 

Live Flight TrackerFlight Track Log ✈ AFR6725 ✈ 20-Jul-2013 ✈ MMMX / MEX - KIAH

Flight Track Log - Related Links

Times and Time Zones

All times are in EDT time to prevent confusion due to time zone crossing. See the AFR6725 flight status page for this flight to view local times or setup timezone preferences in your user account.

Time Position Orientation Groundspeed Altitude Reporting Facility
EDT Latitude Longitude Course Direction KTS MPH feet Rate Location/Type
03:46AM 19.4597 -98.9523 78° East  Level FlightAware Approximate
03:47AM 19.4936 -98.8359 71° East  Level FlightAware Approximate
03:48AM 19.5321 -98.7205 70° East  Level FlightAware Approximate
03:49AM 19.5592 -98.6029 72° East  Level FlightAware Approximate
03:50AM 19.5942 -98.4862 72° East  Level FlightAware Approximate
03:51AM 19.6438 -98.3818 North  Level FlightAware Approximate
03:52AM 19.7581 -98.3651 11° North  Level FlightAware Approximate
03:53AM 19.8703 -98.3377 17° North  Level FlightAware Approximate
03:54AM 19.9844 -98.3207 North  Level FlightAware Approximate
03:55AM 20.0981 -98.3004 11° North  Level FlightAware Approximate
03:56AM 20.2114 -98.2769 12° North  Level FlightAware Approximate
03:57AM 20.3241 -98.2509 12° North  Level FlightAware Approximate
03:58AM 20.4368 -98.2242 13° North  Level FlightAware Approximate
03:59AM 20.5509 -98.2110 North  Level FlightAware Approximate
04:00AM 20.6647 -98.1904 11° North  Level FlightAware Approximate
04:01AM 20.7781 -98.1678 11° North  Level FlightAware Approximate
04:02AM 20.8915 -98.1451 11° North  Level FlightAware Approximate
04:03AM 21.0049 -98.1224 11° North  Level FlightAware Approximate
04:04AM 21.1183 -98.0996 11° North  Level FlightAware Approximate
04:05AM 21.2186 -98.0783 11° North  Level FlightAware Approximate
04:06AM 21.3188 -98.0570 11° North  Level FlightAware Approximate
04:07AM 21.4191 -98.0356 11° North  Level FlightAware Approximate
04:08AM 21.5194 -98.0142 11° North  Level FlightAware Approximate
04:09AM 21.6196 -97.9927 11° North  Level FlightAware Approximate
04:10AM 21.7199 -97.9713 11° North  Level FlightAware Approximate
04:11AM 21.8201 -97.9498 11° North  Level FlightAware Approximate
04:12AM 21.9203 -97.9282 11° North  Level FlightAware Approximate
04:13AM 22.0206 -97.9067 11° North  Level FlightAware Approximate
04:14AM 22.1208 -97.8851 11° North  Level FlightAware Approximate
04:15AM 22.2211 -97.8634 11° North  Level FlightAware Approximate
04:16AM 22.3212 -97.8415 12° North  Level FlightAware Approximate
04:17AM 22.4213 -97.8189 12° North  Level FlightAware Approximate
04:18AM 22.5214 -97.7964 12° North  Level FlightAware Approximate
04:19AM 22.6214 -97.7738 12° North  Level FlightAware Approximate
04:20AM 22.7215 -97.7511 12° North  Level FlightAware Approximate
04:21AM 22.8216 -97.7284 12° North  Level FlightAware Approximate
04:22AM 22.9216 -97.7057 12° North  Level FlightAware Approximate
04:23AM 23.0217 -97.6830 12° North  Level FlightAware Approximate
04:24AM 23.1217 -97.6602 12° North  Level FlightAware Approximate
04:25AM 23.2218 -97.6374 12° North  Level FlightAware Approximate
04:26AM 23.3218 -97.6143 12° North  Level FlightAware Approximate
04:26AM 23.8800 -97.4960 12° North 438 504 41,000  Level FlightAware
04:27AM 23.4218 -97.5913 12° North  Level FlightAware Approximate
04:27AM 23.9520 -97.4790 12° North 438 504 41,000  Level FlightAware
04:28AM 24.0510 -97.4560 12° North 439 505 41,000  Level FlightAware
04:28AM 24.1270 -97.4380 12° North 440 506 41,000  Level FlightAware
04:29AM 24.1840 -97.4250 12° North 440 506 41,000  Level FlightAware
04:29AM 24.2630 -97.4060 12° North 439 505 41,000  Level FlightAware
04:30AM 24.3500 -97.3860 12° North 438 504 41,000  Level FlightAware
04:31AM 24.4330 -97.3660 12° North 438 504 41,000  Level FlightAware
04:32AM 24.5210 -97.3450 12° North 438 504 41,000  Level FlightAware
04:32AM 24.6080 -97.3250 12° North 438 504 41,000  Level FlightAware
04:33AM 24.6930 -97.3050 12° North 438 504 41,000  Level FlightAware
04:34AM 24.7680 -97.2870 12° North 439 505 41,000  Level FlightAware
04:34AM 24.8350 -97.2710 12° North 439 505 41,000  Level FlightAware
04:35AM 24.9160 -97.2520 12° North 440 506 41,000  Level FlightAware
04:36AM 25.0070 -97.2300 12° North 441 507 41,000  Level FlightAware
04:36AM 25.0800 -97.2130 12° North 441 507 41,000  Level FlightAware
04:37AM 25.1680 -97.1920 12° North 442 509 41,000  Level FlightAware
04:38AM 25.2470 -97.1730 12° North 443 510 41,000  Level FlightAware
04:38AM 25.3150 -97.1570 12° North 443 510 41,000  Level FlightAware
04:39AM 25.3930 -97.1380 12° North 444 511 41,000  Level FlightAware
04:40AM 25.4840 -97.1160 12° North 445 512 41,000  Level FlightAware
04:40AM 25.5740 -97.0950 12° North 446 513 41,000  Level FlightAware
04:41AM 25.6620 -97.0750 12° North 447 514 41,000  Level FlightAware
04:42AM 25.7450 -97.0570 11° North 448 516 41,000  Level FlightAware
04:42AM 25.7942 -97.0462 11° North 449 517 41,000  Level FlightAware ADS-B
04:43AM 25.8679 -97.0296 11° North 450 518 41,000  Level FlightAware ADS-B
04:43AM 25.9377 -97.0136 12° North 451 519 41,000  Level FlightAware ADS-B
04:44AM 26.0760 -96.9820 12° North 451 519 41,000  Level FlightAware
04:45AM 26.1590 -96.9630 12° North 452 520 41,000  Level FlightAware
04:46AM 26.2530 -96.9420 11° North 451 519 41,000  Level FlightAware
04:46AM 26.3300 -96.9240 12° North 450 518 41,000  Level FlightAware
04:47AM 26.4140 -96.9050 11° North 450 518 41,000  Level FlightAware
04:47AM 26.4520 -96.8964 11° North 451 519 41,000  Level FlightAware ADS-B
04:48AM 26.5328 -96.8778 12° North 451 519 41,000  Level FlightAware ADS-B
04:49AM 26.6032 -96.8616 12° North 453 521 41,000  Level FlightAware ADS-B
04:49AM 26.6678 -96.8468 12° North 453 521 41,000  Level FlightAware ADS-B
04:50AM 26.7312 -96.8323 12° North 453 521 41,000  Level FlightAware ADS-B
04:50AM 26.8241 -96.8110 12° North 453 521 41,000  Level FlightAware ADS-B
04:51AM 26.8936 -96.7949 12° North 453 521 41,000  Level FlightAware ADS-B
04:52AM 26.9588 -96.7798 12° North 453 521 41,000  Level FlightAware ADS-B
04:52AM 27.0622 -96.7560 12° North 453 521 41,000  Level FlightAware ADS-B
04:53AM 27.1393 -96.7381 12° North 454 522 41,000  Level FlightAware ADS-B
04:54AM 27.2034 -96.7233 12° North 454 522 41,000  Level FlightAware ADS-B
04:54AM 27.2668 -96.7086 12° North 453 521 41,000  Level FlightAware ADS-B
04:55AM 27.3312 -96.6937 12° North 453 521 41,000  Level FlightAware ADS-B
04:55AM 27.3945 -96.6789 12° North 454 522 41,000  Level FlightAware ADS-B
04:56AM 27.4666 -96.6620 12° North 455 524 41,000  Level FlightAware ADS-B
04:56AM 27.5340 -96.6463 12° North 455 524 41,000  Level FlightAware ADS-B
04:57AM 27.5972 -96.6315 12° North 453 521 41,000  Level FlightAware ADS-B
04:57AM 27.6599 -96.6168 12° North 454 522 41,000  Level FlightAware ADS-B
04:58AM 27.7222 -96.6023 12° North 456 525 41,000  Level FlightAware ADS-B
04:58AM 27.7856 -96.5875 12° North 457 526 41,000  Level FlightAware ADS-B
04:59AM 27.8494 -96.5725 12° North 457 526 41,000  Level FlightAware ADS-B
04:59AM 27.9122 -96.5578 12° North 458 527 41,000 -420 Level FlightAware ADS-B
05:00AM 27.9756 -96.5428 12° North 462 532 40,600 -1,920 Descending FlightAware ADS-B
05:00AM 28.0399 -96.5277 12° North 462 532 39,100 -3,300 Descending FlightAware ADS-B
05:01AM 28.1048 -96.5125 12° North 469 540 37,300 -3,420 Descending FlightAware ADS-B
05:01AM 28.1705 -96.4969 12° North 471 542 35,600 -2,220 Descending FlightAware ADS-B
05:04AM 28.5090 -96.4170 12° North 445 512 30,000 -1,560 Descending FlightAware
05:05AM 28.5910 -96.3990 11° North 445 512 30,000 -3,240 Level FlightAware
05:06AM 28.6830 -96.3750 13° North 423 487 25,600 -4,200 Descending FlightAware
05:06AM 28.7810 -96.3520 12° North 412 474 23,700 -2,220 Descending FlightAware
05:07AM 28.8600 -96.3330 12° North 405 466 22,100 -1,740 Descending FlightAware
05:08AM 28.9620 -96.3090 12° North 400 460 20,900 -780 Descending FlightAware
05:09AM 29.0180 -96.2970 11° North 400 460 20,900 -3,120 Level FlightAware
05:09AM 29.0688 -96.2828 14° North 387 445 18,000 -4,800 Descending FlightAware ADS-B
05:10AM 29.1221 -96.2701 12° North 385 443 16,900 -2,100 Descending FlightAware ADS-B
05:12AM 29.3424 -96.2169 12° North 373 429 12,500 -2,040 Descending FlightAware ADS-B
05:12AM 29.3933 -96.2047 12° North 368 423 11,500 -1,920 Descending FlightAware ADS-B
05:13AM 29.4435 -96.1924 12° North 362 417 10,600 -1,440 Descending FlightAware ADS-B
05:13AM 29.4916 -96.1808 12° North 343 395 10,100 -960 Descending FlightAware ADS-B
05:13AM 29.5125 -96.1756 12° North 335 386 9,900 -720 Descending FlightAware ADS-B
05:13AM 29.5169 -96.1743 14° North 335 386 9,900  Level FlightAware ADS-B
05:13AM 29.5213 -96.1726 19° North 335 386 9,900  Level FlightAware ADS-B
05:14AM 29.5265 -96.1703 21° North 334 384 9,900  Level FlightAware ADS-B
05:14AM 29.5313 -96.1677 25° Northeast 334 384 9,900  Level FlightAware ADS-B
05:14AM 29.5367 -96.1641 30° Northeast 333 383 9,900  Level FlightAware ADS-B
05:14AM 29.5416 -96.1604 33° Northeast 334 384 9,900  Level FlightAware ADS-B
05:14AM 29.5465 -96.1560 38° Northeast 334 384 9,900  Level FlightAware ADS-B
05:14AM 29.5503 -96.1520 42° Northeast 333 383 9,900  Level FlightAware ADS-B
05:14AM 29.5545 -96.1470 46° Northeast 333 383 9,900  Level FlightAware ADS-B
05:14AM 29.5575 -96.1428 51° Northeast 333 383 9,900  Level FlightAware ADS-B
05:14AM 29.5611 -96.1370 54° Northeast 333 383 9,900  Level FlightAware ADS-B
05:14AM 29.5732 -96.1145 58° Northeast 332 382 9,900  Level FlightAware ADS-B
05:15AM 29.5852 -96.0910 60° Northeast 332 382 9,900  Level FlightAware ADS-B
05:15AM 29.5965 -96.0678 61° Northeast 331 381 9,900  Level FlightAware ADS-B
05:15AM 29.6079 -96.0445 61° Northeast 332 382 9,900  Level FlightAware ADS-B
05:15AM 29.6192 -96.0214 61° Northeast 333 383 9,900  Level FlightAware ADS-B
05:16AM 29.6308 -95.9981 60° Northeast 332 382 9,900  Level FlightAware ADS-B
05:16AM 29.6429 -95.9739 60° Northeast 332 382 9,900  Level FlightAware ADS-B
05:16AM 29.6546 -95.9508 60° Northeast 332 382 9,900  Level FlightAware ADS-B
05:16AM 29.6663 -95.9277 60° Northeast 329 379 9,900  Level FlightAware ADS-B
05:17AM 29.6777 -95.9052 60° Northeast 315 362 9,900 180 Level FlightAware ADS-B
05:17AM 29.6885 -95.8839 60° Northeast 302 348 10,000 180 Climbing FlightAware ADS-B
05:17AM 29.6989 -95.8631 60° Northeast 298 343 10,000 -240 Level FlightAware ADS-B
05:17AM 29.7094 -95.8422 60° Northeast 298 343 9,900 -240 Descending FlightAware ADS-B
05:18AM 29.7200 -95.8213 60° Northeast 301 346 9,900  Level FlightAware ADS-B
05:18AM 29.7305 -95.8004 60° Northeast 300 345 9,900  Level FlightAware ADS-B
05:18AM 29.7416 -95.7782 60° Northeast 299 344 9,900  Level FlightAware ADS-B
05:18AM 29.7531 -95.7553 60° Northeast 301 346 9,900  Level FlightAware ADS-B
05:19AM 29.7634 -95.7345 60° Northeast 300 345 9,900  Level FlightAware ADS-B
05:19AM 29.7743 -95.7128 60° Northeast 300 345 9,900 -240 Level FlightAware ADS-B
05:19AM 29.7851 -95.6911 60° Northeast 297 342 9,800 -780 Descending FlightAware ADS-B
05:19AM 29.7955 -95.6704 60° Northeast 296 341 9,500 -1,380 Descending FlightAware ADS-B
05:20AM 29.8062 -95.6487 60° Northeast 294 338 9,100 -1,320 Descending FlightAware ADS-B
05:20AM 29.8389 -95.5834 60° Northeast 289 333 8,100 -1,260 Descending FlightAware ADS-B
05:21AM 29.8651 -95.5310 60° Northeast 286 329 7,300 -1,200 Descending FlightAware ADS-B
05:21AM 29.8748 -95.5111 61° Northeast 284 327 7,000 -1,320 Descending FlightAware ADS-B
05:22AM 29.8856 -95.4896 60° Northeast 282 325 6,600 -1,380 Descending FlightAware ADS-B
05:22AM 29.8890 -95.4821 62° Northeast 281 323 6,500 -1,320 Descending FlightAware ADS-B
05:22AM 29.8927 -95.4711 71° East 281 323 6,300 -1,320 Descending FlightAware ADS-B
05:22AM 29.8947 -95.4626 75° East 280 322 6,200 -1,020 Descending FlightAware ADS-B
05:22AM 29.8965 -95.4447 83° East 280 322 6,000 -300 Descending FlightAware ADS-B
05:23AM 29.8966 -95.3581 90° East 280 322 5,900 -120 Descending FlightAware ADS-B
05:24AM 29.8966 -95.2785 90° East 277 319 5,800 -420 Descending FlightAware ADS-B
05:24AM 29.8967 -95.2524 90° East 276 318 5,400 -1,380 Descending FlightAware ADS-B
05:25AM 29.8970 -95.2077 89° East 274 315 4,700 -1,380 Descending FlightAware ADS-B
05:25AM 29.8970 -95.1859 90° East 273 314 4,400 -1,200 Descending FlightAware ADS-B
05:25AM 29.8970 -95.1637 90° East 273 314 4,100 -1,020 Descending FlightAware ADS-B
05:26AM 29.8972 -95.1411 89° East 274 315 3,900 -240 Descending FlightAware ADS-B
05:26AM 29.8978 -95.0776 89° East 272 313 3,900  Level FlightAware ADS-B
05:27AM 29.8981 -95.0570 89° East 270 311 3,900  Level FlightAware ADS-B
05:27AM 29.8985 -95.0486 87° East 269 310 3,900  Level FlightAware ADS-B
05:27AM 29.8989 -95.0428 85° East 267 307 3,900  Level FlightAware ADS-B
05:27AM 29.8995 -95.0381 82° East 266 306 3,900  Level FlightAware ADS-B
05:27AM 29.9003 -95.0339 78° East 264 304 3,900  Level FlightAware ADS-B
05:27AM 29.9017 -95.0285 73° East 262 302 3,900  Level FlightAware ADS-B
05:27AM 29.9031 -95.0247 67° East 261 300 3,900  Level FlightAware ADS-B
05:27AM 29.9050 -95.0207 61° Northeast 258 297 3,900  Level FlightAware ADS-B
05:27AM 29.9075 -95.0167 54° Northeast 256 295 3,900  Level FlightAware ADS-B
05:27AM 29.9106 -95.0131 45° Northeast 254 292 3,900  Level FlightAware ADS-B
05:27AM 29.9163 -95.0083 36° Northeast 252 290 3,900  Level FlightAware ADS-B
05:27AM 29.9212 -95.0056 26° Northeast 251 289 3,900  Level FlightAware ADS-B
05:27AM 29.9248 -95.0042 19° North 249 287 3,900  Level FlightAware ADS-B
05:27AM 29.9290 -95.0030 14° North 247 284 3,900 840 Level FlightAware ADS-B
05:28AM 29.9331 -95.0022 10° North 246 283 4,000 660 Climbing FlightAware ADS-B
05:28AM 29.9394 -95.0015 North 242 278 4,000 -360 Level FlightAware ADS-B
05:28AM 29.9534 -95.0039 342° North 234 269 3,900 -300 Descending FlightAware ADS-B
05:28AM 29.9602 -95.0081 329° Northwest 230 265 3,900  Level FlightAware ADS-B
05:28AM 29.9680 -95.0177 309° West 227 261 3,900  Level FlightAware ADS-B
05:28AM 29.9715 -95.0248 297° West 227 261 3,900  Level FlightAware ADS-B
05:28AM 29.9728 -95.0281 294° West 227 261 3,900  Level FlightAware ADS-B
05:28AM 29.9741 -95.0319 292° West 228 262 3,900 420 Level FlightAware ADS-B
05:29AM 29.9773 -95.0444 285° West 228 262 4,000 240 Climbing FlightAware ADS-B
05:29AM 29.9784 -95.0575 272° West 228 262 4,000  Level FlightAware ADS-B
05:29AM 29.9784 -95.0650 270° West 226 260 4,000 -780 Level FlightAware ADS-B
05:29AM 29.9774 -95.0865 267° West 221 254 3,700 -1,200 Descending FlightAware ADS-B
05:29AM 29.9771 -95.0951 268° West 220 253 3,500 -1,140 Descending FlightAware ADS-B
05:30AM 29.9775 -95.1356 271° West 207 238 2,900 -1,140 Descending FlightAware ADS-B
05:30AM 29.9777 -95.1783 270° West 193 222 2,100 -1,080 Descending FlightAware ADS-B
05:31AM 29.9776 -95.2028 270° West 178 205 1,800 -840 Descending FlightAware ADS-B
05:31AM 29.9776 -95.2198 270° West 166 191 1,500 -1,020 Descending FlightAware ADS-B
05:31AM 29.9776 -95.2295 270° West 162 186 1,300 -900 Descending FlightAware ADS-B
05:32AM 29.9776 -95.2425 270° West 157 181 1,100 -780 Descending FlightAware ADS-B
05:32AM 29.9776 -95.2493 270° West 156 180 1,000 -1,080 Descending FlightAware ADS-B
05:32AM 29.9776 -95.2569 270° West 156 180 800 -1,020 Descending FlightAware ADS-B
05:32AM 29.9776 -95.2644 270° West 156 180 700 -660 Descending FlightAware ADS-B
05:32AM 29.9776 -95.2730 270° West 156 180 600 -660 Descending FlightAware ADS-B
05:32AM 29.9776 -95.2803 270° West 157 181 500 -720 Descending FlightAware ADS-B
05:33AM 29.9776 -95.2938 270° West 160 184 300 -960 Descending FlightAware ADS-B
05:33AM 29.9776 -95.3023 270° West 162 186 100 -1,200 Descending FlightAware ADS-B